sensor_id;sensor_type;location;lat;lon;timestamp;temperature;humidity
14061;DHT22;7105;43.616;1.434;2022-11-15T00:00:50;13.50;99.90
14061;DHT22;7105;43.616;1.434;2022-11-15T00:03:17;13.50;99.90
14061;DHT22;7105;43.616;1.434;2022-11-15T00:05:44;13.50;99.90
14061;DHT22;7105;43.616;1.434;2022-11-15T00:08:10;13.50;99.90
14061;DHT22;7105;43.616;1.434;2022-11-15T00:10:36;13.40;99.90
14061;DHT22;7105;43.616;1.434;2022-11-15T00:13:06;13.40;99.90
14061;DHT22;7105;43.616;1.434;2022-11-15T00:15:35;13.40;99.90
14061;DHT22;7105;43.616;1.434;2022-11-15T00:18:02;13.40;99.90
14061;DHT22;7105;43.616;1.434;2022-11-15T00:20:28;13.40;99.90
14061;DHT22;7105;43.616;1.434;2022-11-15T00:22:53;13.40;99.90
14061;DHT22;7105;43.616;1.434;2022-11-15T00:25:19;13.40;99.90
14061;DHT22;7105;43.616;1.434;2022-11-15T00:27:44;13.40;99.90
14061;DHT22;7105;43.616;1.434;2022-11-15T00:30:11;13.50;99.90
14061;DHT22;7105;43.616;1.434;2022-11-15T00:32:37;13.50;99.90
14061;DHT22;7105;43.616;1.434;2022-11-15T00:35:02;13.50;99.90
14061;DHT22;7105;43.616;1.434;2022-11-15T00:37:28;13.60;99.90
14061;DHT22;7105;43.616;1.434;2022-11-15T00:39:54;13.60;99.90
14061;DHT22;7105;43.616;1.434;2022-11-15T00:42:19;13.50;99.90
14061;DHT22;7105;43.616;1.434;2022-11-15T00:44:45;13.50;99.90
14061;DHT22;7105;43.616;1.434;2022-11-15T00:47:11;13.50;99.90
14061;DHT22;7105;43.616;1.434;2022-11-15T00:49:36;13.40;99.90
14061;DHT22;7105;43.616;1.434;2022-11-15T00:52:02;13.50;99.90
14061;DHT22;7105;43.616;1.434;2022-11-15T00:54:28;13.40;99.90
14061;DHT22;7105;43.616;1.434;2022-11-15T00:56:53;13.40;99.90
14061;DHT22;7105;43.616;1.434;2022-11-15T00:59:19;13.30;99.90
14061;DHT22;7105;43.616;1.434;2022-11-15T01:01:45;13.30;99.90
14061;DHT22;7105;43.616;1.434;2022-11-15T01:04:10;13.30;99.90
14061;DHT22;7105;43.616;1.434;2022-11-15T01:06:36;13.30;99.90
14061;DHT22;7105;43.616;1.434;2022-11-15T01:09:02;13.30;99.90
14061;DHT22;7105;43.616;1.434;2022-11-15T01:11:27;13.30;99.90
14061;DHT22;7105;43.616;1.434;2022-11-15T01:13:55;13.30;99.90
14061;DHT22;7105;43.616;1.434;2022-11-15T01:16:21;13.30;99.90
14061;DHT22;7105;43.616;1.434;2022-11-15T01:18:46;13.30;99.90
14061;DHT22;7105;43.616;1.434;2022-11-15T01:21:16;13.40;99.90
14061;DHT22;7105;43.616;1.434;2022-11-15T01:23:42;13.40;99.90
14061;DHT22;7105;43.616;1.434;2022-11-15T01:26:12;13.40;99.90
14061;DHT22;7105;43.616;1.434;2022-11-15T01:28:40;13.40;99.90
14061;DHT22;7105;43.616;1.434;2022-11-15T01:31:17;13.40;99.90
14061;DHT22;7105;43.616;1.434;2022-11-15T01:33:43;13.40;99.90
14061;DHT22;7105;43.616;1.434;2022-11-15T01:36:15;13.40;99.90
14061;DHT22;7105;43.616;1.434;2022-11-15T01:38:41;13.30;99.90
14061;DHT22;7105;43.616;1.434;2022-11-15T01:41:17;13.40;99.90
14061;DHT22;7105;43.616;1.434;2022-11-15T01:43:44;13.30;99.90
14061;DHT22;7105;43.616;1.434;2022-11-15T01:46:31;13.20;99.90
14061;DHT22;7105;43.616;1.434;2022-11-15T01:49:02;13.30;99.90
14061;DHT22;7105;43.616;1.434;2022-11-15T01:51:30;13.30;99.90
14061;DHT22;7105;43.616;1.434;2022-11-15T01:54:07;13.20;99.90
14061;DHT22;7105;43.616;1.434;2022-11-15T01:56:41;13.30;99.90
14061;DHT22;7105;43.616;1.434;2022-11-15T01:59:09;13.30;99.90
14061;DHT22;7105;43.616;1.434;2022-11-15T02:01:36;13.20;99.90
14061;DHT22;7105;43.616;1.434;2022-11-15T02:04:34;13.20;99.90
14061;DHT22;7105;43.616;1.434;2022-11-15T02:06:58;13.20;99.90
14061;DHT22;7105;43.616;1.434;2022-11-15T02:09:25;13.20;99.90
14061;DHT22;7105;43.616;1.434;2022-11-15T02:11:51;13.20;99.90
14061;DHT22;7105;43.616;1.434;2022-11-15T02:14:19;13.20;99.90
14061;DHT22;7105;43.616;1.434;2022-11-15T02:19:49;13.20;99.90
14061;DHT22;7105;43.616;1.434;2022-11-15T02:22:41;13.20;99.90
14061;DHT22;7105;43.616;1.434;2022-11-15T02:25:30;13.20;99.90
14061;DHT22;7105;43.616;1.434;2022-11-15T02:28:23;13.20;99.90
14061;DHT22;7105;43.616;1.434;2022-11-15T02:36:16;13.30;99.90
14061;DHT22;7105;43.616;1.434;2022-11-15T02:38:59;13.30;99.90
14061;DHT22;7105;43.616;1.434;2022-11-15T02:41:46;13.30;99.90
14061;DHT22;7105;43.616;1.434;2022-11-15T02:44:22;13.30;99.90
14061;DHT22;7105;43.616;1.434;2022-11-15T02:46:54;13.30;99.90
14061;DHT22;7105;43.616;1.434;2022-11-15T02:49:48;13.30;99.90
14061;DHT22;7105;43.616;1.434;2022-11-15T02:52:16;13.40;99.90
14061;DHT22;7105;43.616;1.434;2022-11-15T02:54:42;13.30;99.90
14061;DHT22;7105;43.616;1.434;2022-11-15T02:57:14;13.30;99.90
14061;DHT22;7105;43.616;1.434;2022-11-15T03:15:38;13.40;99.90
14061;DHT22;7105;43.616;1.434;2022-11-15T03:18:12;13.50;99.90
14061;DHT22;7105;43.616;1.434;2022-11-15T03:20:42;13.50;99.90
14061;DHT22;7105;43.616;1.434;2022-11-15T03:23:10;13.50;99.90
14061;DHT22;7105;43.616;1.434;2022-11-15T03:25:43;13.60;99.90
14061;DHT22;7105;43.616;1.434;2022-11-15T03:28:13;13.60;99.90
14061;DHT22;7105;43.616;1.434;2022-11-15T03:30:42;13.60;99.90
14061;DHT22;7105;43.616;1.434;2022-11-15T03:33:08;13.70;99.90
14061;DHT22;7105;43.616;1.434;2022-11-15T03:35:40;13.70;99.90
14061;DHT22;7105;43.616;1.434;2022-11-15T03:38:26;13.70;99.90
14061;DHT22;7105;43.616;1.434;2022-11-15T03:41:06;13.70;99.90
14061;DHT22;7105;43.616;1.434;2022-11-15T03:43:58;13.80;99.90
14061;DHT22;7105;43.616;1.434;2022-11-15T03:46:38;13.80;99.90
14061;DHT22;7105;43.616;1.434;2022-11-15T03:49:19;13.90;99.90
14061;DHT22;7105;43.616;1.434;2022-11-15T03:51:47;13.90;99.90
14061;DHT22;7105;43.616;1.434;2022-11-15T03:54:13;13.90;99.90
14061;DHT22;7105;43.616;1.434;2022-11-15T03:56:38;13.90;99.90
14061;DHT22;7105;43.616;1.434;2022-11-15T03:59:04;13.90;99.90
14061;DHT22;7105;43.616;1.434;2022-11-15T04:01:30;14.00;99.90
14061;DHT22;7105;43.616;1.434;2022-11-15T04:03:55;14.00;99.90
14061;DHT22;7105;43.616;1.434;2022-11-15T04:06:21;14.00;99.90
14061;DHT22;7105;43.616;1.434;2022-11-15T04:08:46;14.00;99.90
14061;DHT22;7105;43.616;1.434;2022-11-15T04:11:12;14.00;99.90
14061;DHT22;7105;43.616;1.434;2022-11-15T04:13:38;13.90;99.90
14061;DHT22;7105;43.616;1.434;2022-11-15T04:16:03;13.90;99.90
14061;DHT22;7105;43.616;1.434;2022-11-15T04:18:29;13.90;99.90
14061;DHT22;7105;43.616;1.434;2022-11-15T04:20:55;13.90;99.90
14061;DHT22;7105;43.616;1.434;2022-11-15T04:23:39;13.90;99.90
14061;DHT22;7105;43.616;1.434;2022-11-15T04:26:21;13.80;99.90
14061;DHT22;7105;43.616;1.434;2022-11-15T04:28:48;13.80;99.90
14061;DHT22;7105;43.616;1.434;2022-11-15T04:31:32;13.90;99.90
14061;DHT22;7105;43.616;1.434;2022-11-15T04:33:58;13.80;99.90
14061;DHT22;7105;43.616;1.434;2022-11-15T04:36:23;13.80;99.90
14061;DHT22;7105;43.616;1.434;2022-11-15T04:39:08;13.80;99.90
14061;DHT22;7105;43.616;1.434;2022-11-15T04:41:34;13.80;99.90
14061;DHT22;7105;43.616;1.434;2022-11-15T04:43:59;13.80;99.90
14061;DHT22;7105;43.616;1.434;2022-11-15T04:46:25;13.80;99.90
14061;DHT22;7105;43.616;1.434;2022-11-15T04:48:52;13.90;99.90
14061;DHT22;7105;43.616;1.434;2022-11-15T04:51:18;13.90;99.90
14061;DHT22;7105;43.616;1.434;2022-11-15T04:53:44;13.90;99.90
14061;DHT22;7105;43.616;1.434;2022-11-15T04:56:10;13.90;99.90
14061;DHT22;7105;43.616;1.434;2022-11-15T04:58:35;13.90;99.90
14061;DHT22;7105;43.616;1.434;2022-11-15T05:03:33;14.00;99.90
14061;DHT22;7105;43.616;1.434;2022-11-15T05:06:18;14.00;99.90
14061;DHT22;7105;43.616;1.434;2022-11-15T05:08:43;14.10;99.90
14061;DHT22;7105;43.616;1.434;2022-11-15T05:11:09;14.10;99.90
14061;DHT22;7105;43.616;1.434;2022-11-15T05:13:34;14.10;99.90
14061;DHT22;7105;43.616;1.434;2022-11-15T05:16:00;14.20;99.90
14061;DHT22;7105;43.616;1.434;2022-11-15T05:18:26;14.20;99.90
14061;DHT22;7105;43.616;1.434;2022-11-15T05:20:51;14.20;99.90
14061;DHT22;7105;43.616;1.434;2022-11-15T05:23:17;14.30;99.90
14061;DHT22;7105;43.616;1.434;2022-11-15T05:25:43;14.30;99.90
14061;DHT22;7105;43.616;1.434;2022-11-15T05:28:08;14.30;99.90
14061;DHT22;7105;43.616;1.434;2022-11-15T05:30:34;14.30;99.90
14061;DHT22;7105;43.616;1.434;2022-11-15T05:33:00;14.30;99.90
14061;DHT22;7105;43.616;1.434;2022-11-15T05:35:39;14.30;99.90
14061;DHT22;7105;43.616;1.434;2022-11-15T05:38:05;14.30;99.90
14061;DHT22;7105;43.616;1.434;2022-11-15T05:40:31;14.30;99.90
14061;DHT22;7105;43.616;1.434;2022-11-15T05:42:57;14.30;99.90
14061;DHT22;7105;43.616;1.434;2022-11-15T05:45:25;14.30;99.90
14061;DHT22;7105;43.616;1.434;2022-11-15T05:47:51;14.30;99.90
14061;DHT22;7105;43.616;1.434;2022-11-15T05:50:18;14.30;99.90
14061;DHT22;7105;43.616;1.434;2022-11-15T05:52:45;14.40;99.90
14061;DHT22;7105;43.616;1.434;2022-11-15T05:55:11;14.40;99.90
14061;DHT22;7105;43.616;1.434;2022-11-15T05:57:37;14.40;99.90
14061;DHT22;7105;43.616;1.434;2022-11-15T06:00:04;14.40;99.90
14061;DHT22;7105;43.616;1.434;2022-11-15T06:02:30;14.40;99.90
14061;DHT22;7105;43.616;1.434;2022-11-15T06:04:56;14.40;99.90
14061;DHT22;7105;43.616;1.434;2022-11-15T06:07:21;14.40;99.90
14061;DHT22;7105;43.616;1.434;2022-11-15T06:09:47;14.40;99.90
14061;DHT22;7105;43.616;1.434;2022-11-15T06:12:13;14.40;99.90
14061;DHT22;7105;43.616;1.434;2022-11-15T06:14:39;14.40;99.90
14061;DHT22;7105;43.616;1.434;2022-11-15T06:17:04;14.40;99.90
14061;DHT22;7105;43.616;1.434;2022-11-15T06:19:30;14.40;99.90
14061;DHT22;7105;43.616;1.434;2022-11-15T06:21:59;14.40;99.90
14061;DHT22;7105;43.616;1.434;2022-11-15T06:24:25;14.40;99.90
14061;DHT22;7105;43.616;1.434;2022-11-15T06:26:50;14.40;99.90
14061;DHT22;7105;43.616;1.434;2022-11-15T06:29:16;14.40;99.90
14061;DHT22;7105;43.616;1.434;2022-11-15T06:31:42;14.40;99.90
14061;DHT22;7105;43.616;1.434;2022-11-15T06:34:07;14.40;99.90
14061;DHT22;7105;43.616;1.434;2022-11-15T06:36:35;14.40;99.90
14061;DHT22;7105;43.616;1.434;2022-11-15T06:39:02;14.40;99.90
14061;DHT22;7105;43.616;1.434;2022-11-15T06:41:28;14.40;99.90
14061;DHT22;7105;43.616;1.434;2022-11-15T06:43:54;14.40;99.90
14061;DHT22;7105;43.616;1.434;2022-11-15T06:46:19;14.40;99.90
14061;DHT22;7105;43.616;1.434;2022-11-15T06:48:45;14.50;99.90
14061;DHT22;7105;43.616;1.434;2022-11-15T06:51:10;14.50;99.90
14061;DHT22;7105;43.616;1.434;2022-11-15T06:53:36;14.50;99.90
14061;DHT22;7105;43.616;1.434;2022-11-15T06:56:04;14.50;99.90
14061;DHT22;7105;43.616;1.434;2022-11-15T06:58:30;14.50;99.90
14061;DHT22;7105;43.616;1.434;2022-11-15T07:01:00;14.50;99.90
14061;DHT22;7105;43.616;1.434;2022-11-15T07:03:26;14.50;99.90
14061;DHT22;7105;43.616;1.434;2022-11-15T07:05:56;14.60;99.90
14061;DHT22;7105;43.616;1.434;2022-11-15T07:08:23;14.60;99.90
14061;DHT22;7105;43.616;1.434;2022-11-15T07:10:49;14.60;99.90
14061;DHT22;7105;43.616;1.434;2022-11-15T07:13:15;14.60;99.90
14061;DHT22;7105;43.616;1.434;2022-11-15T07:15:40;14.60;99.90
14061;DHT22;7105;43.616;1.434;2022-11-15T07:18:06;14.60;99.90
14061;DHT22;7105;43.616;1.434;2022-11-15T07:20:32;14.60;99.90
14061;DHT22;7105;43.616;1.434;2022-11-15T07:23:02;14.70;99.90
14061;DHT22;7105;43.616;1.434;2022-11-15T07:25:28;14.70;99.90
14061;DHT22;7105;43.616;1.434;2022-11-15T07:27:55;14.70;99.90
14061;DHT22;7105;43.616;1.434;2022-11-15T07:30:21;14.70;99.90
14061;DHT22;7105;43.616;1.434;2022-11-15T07:32:47;14.70;99.90
14061;DHT22;7105;43.616;1.434;2022-11-15T07:35:17;14.70;99.90
14061;DHT22;7105;43.616;1.434;2022-11-15T07:37:42;14.80;99.90
14061;DHT22;7105;43.616;1.434;2022-11-15T07:40:09;14.80;99.90
14061;DHT22;7105;43.616;1.434;2022-11-15T07:42:34;14.80;99.90
14061;DHT22;7105;43.616;1.434;2022-11-15T07:45:19;14.90;99.90
14061;DHT22;7105;43.616;1.434;2022-11-15T07:47:49;14.90;99.90
14061;DHT22;7105;43.616;1.434;2022-11-15T07:50:16;14.90;99.90
14061;DHT22;7105;43.616;1.434;2022-11-15T07:52:42;14.90;99.90
14061;DHT22;7105;43.616;1.434;2022-11-15T07:55:08;14.90;99.90
14061;DHT22;7105;43.616;1.434;2022-11-15T07:57:34;15.00;99.90
14061;DHT22;7105;43.616;1.434;2022-11-15T08:00:00;15.00;99.90
14061;DHT22;7105;43.616;1.434;2022-11-15T08:02:26;15.00;99.90
14061;DHT22;7105;43.616;1.434;2022-11-15T08:04:51;15.00;99.90
14061;DHT22;7105;43.616;1.434;2022-11-15T08:07:17;15.00;99.90
14061;DHT22;7105;43.616;1.434;2022-11-15T08:09:42;15.00;99.90
14061;DHT22;7105;43.616;1.434;2022-11-15T08:12:08;15.10;99.90
14061;DHT22;7105;43.616;1.434;2022-11-15T08:14:35;15.10;99.90
14061;DHT22;7105;43.616;1.434;2022-11-15T08:17:01;15.10;99.90
14061;DHT22;7105;43.616;1.434;2022-11-15T08:19:26;15.10;99.90
14061;DHT22;7105;43.616;1.434;2022-11-15T08:21:52;15.10;99.90
14061;DHT22;7105;43.616;1.434;2022-11-15T08:24:18;15.20;99.90
14061;DHT22;7105;43.616;1.434;2022-11-15T08:26:43;15.20;99.90
14061;DHT22;7105;43.616;1.434;2022-11-15T08:29:09;15.30;99.90
14061;DHT22;7105;43.616;1.434;2022-11-15T08:31:36;15.30;99.90
14061;DHT22;7105;43.616;1.434;2022-11-15T08:34:03;15.30;99.90
14061;DHT22;7105;43.616;1.434;2022-11-15T08:36:29;15.40;99.90
14061;DHT22;7105;43.616;1.434;2022-11-15T08:38:54;15.40;99.90
14061;DHT22;7105;43.616;1.434;2022-11-15T08:41:27;15.50;99.90
14061;DHT22;7105;43.616;1.434;2022-11-15T08:43:53;15.60;99.90
14061;DHT22;7105;43.616;1.434;2022-11-15T08:46:19;15.80;99.90
14061;DHT22;7105;43.616;1.434;2022-11-15T08:48:45;16.00;99.90
14061;DHT22;7105;43.616;1.434;2022-11-15T08:51:10;16.50;99.90
14061;DHT22;7105;43.616;1.434;2022-11-15T08:53:36;18.50;99.90
14061;DHT22;7105;43.616;1.434;2022-11-15T08:56:02;17.70;99.90
14061;DHT22;7105;43.616;1.434;2022-11-15T08:58:27;17.30;99.90
14061;DHT22;7105;43.616;1.434;2022-11-15T09:00:53;17.00;99.90
14061;DHT22;7105;43.616;1.434;2022-11-15T09:03:20;16.70;99.90
14061;DHT22;7105;43.616;1.434;2022-11-15T09:05:46;16.50;99.90
14061;DHT22;7105;43.616;1.434;2022-11-15T09:08:11;16.30;99.90
14061;DHT22;7105;43.616;1.434;2022-11-15T09:10:38;16.20;99.90
14061;DHT22;7105;43.616;1.434;2022-11-15T09:13:04;16.10;99.90
14061;DHT22;7105;43.616;1.434;2022-11-15T09:15:29;16.00;99.90
14061;DHT22;7105;43.616;1.434;2022-11-15T09:17:58;16.10;99.90
14061;DHT22;7105;43.616;1.434;2022-11-15T09:20:24;16.00;99.90
14061;DHT22;7105;43.616;1.434;2022-11-15T09:22:50;16.00;99.90
14061;DHT22;7105;43.616;1.434;2022-11-15T09:25:16;16.00;99.90
14061;DHT22;7105;43.616;1.434;2022-11-15T09:27:41;16.00;99.90
14061;DHT22;7105;43.616;1.434;2022-11-15T09:30:07;16.10;99.90
14061;DHT22;7105;43.616;1.434;2022-11-15T09:32:33;16.20;99.90
14061;DHT22;7105;43.616;1.434;2022-11-15T09:34:59;16.40;99.90
14061;DHT22;7105;43.616;1.434;2022-11-15T09:37:25;16.60;99.90
14061;DHT22;7105;43.616;1.434;2022-11-15T09:39:51;16.70;99.90
14061;DHT22;7105;43.616;1.434;2022-11-15T09:42:56;16.70;99.90
14061;DHT22;7105;43.616;1.434;2022-11-15T09:48:18;17.00;99.90
14061;DHT22;7105;43.616;1.434;2022-11-15T09:50:49;16.90;99.90
14061;DHT22;7105;43.616;1.434;2022-11-15T09:53:43;16.90;99.90
14061;DHT22;7105;43.616;1.434;2022-11-15T09:56:24;16.70;99.90
14061;DHT22;7105;43.616;1.434;2022-11-15T10:04:16;16.50;99.90
14061;DHT22;7105;43.616;1.434;2022-11-15T10:06:51;16.60;99.90
14061;DHT22;7105;43.616;1.434;2022-11-15T10:09:21;16.60;99.90
14061;DHT22;7105;43.616;1.434;2022-11-15T10:11:48;16.60;99.90
14061;DHT22;7105;43.616;1.434;2022-11-15T10:14:18;16.80;99.90
14061;DHT22;7105;43.616;1.434;2022-11-15T10:17:02;16.90;99.90
14061;DHT22;7105;43.616;1.434;2022-11-15T10:19:56;16.70;99.90
14061;DHT22;7105;43.616;1.434;2022-11-15T10:25:25;16.90;99.90
14061;DHT22;7105;43.616;1.434;2022-11-15T10:30:23;17.40;99.90
14061;DHT22;7105;43.616;1.434;2022-11-15T10:32:49;17.60;99.90
14061;DHT22;7105;43.616;1.434;2022-11-15T10:35:26;17.70;99.90
14061;DHT22;7105;43.616;1.434;2022-11-15T10:38:07;17.70;99.90
14061;DHT22;7105;43.616;1.434;2022-11-15T10:40:34;17.70;99.90
14061;DHT22;7105;43.616;1.434;2022-11-15T10:43:19;18.00;99.90
14061;DHT22;7105;43.616;1.434;2022-11-15T10:45:46;17.80;99.90
14061;DHT22;7105;43.616;1.434;2022-11-15T10:50:39;17.70;99.90
14061;DHT22;7105;43.616;1.434;2022-11-15T10:53:15;17.70;99.90
14061;DHT22;7105;43.616;1.434;2022-11-15T10:55:47;17.90;99.90
14061;DHT22;7105;43.616;1.434;2022-11-15T10:58:39;17.80;99.90
14061;DHT22;7105;43.616;1.434;2022-11-15T11:01:15;17.60;99.90
14061;DHT22;7105;43.616;1.434;2022-11-15T11:03:42;17.70;99.90
14061;DHT22;7105;43.616;1.434;2022-11-15T11:06:16;17.70;99.90
14061;DHT22;7105;43.616;1.434;2022-11-15T11:08:58;17.80;99.90
14061;DHT22;7105;43.616;1.434;2022-11-15T11:11:25;18.00;99.90
14061;DHT22;7105;43.616;1.434;2022-11-15T11:13:51;18.10;99.90
14061;DHT22;7105;43.616;1.434;2022-11-15T11:16:42;18.00;99.90
14061;DHT22;7105;43.616;1.434;2022-11-15T11:22:19;17.90;99.90
14061;DHT22;7105;43.616;1.434;2022-11-15T11:27:43;18.00;99.90
14061;DHT22;7105;43.616;1.434;2022-11-15T11:30:17;17.90;99.90
14061;DHT22;7105;43.616;1.434;2022-11-15T11:32:56;18.00;99.90
14061;DHT22;7105;43.616;1.434;2022-11-15T11:46:30;18.70;99.90
14061;DHT22;7105;43.616;1.434;2022-11-15T11:49:25;18.60;99.90
14061;DHT22;7105;43.616;1.434;2022-11-15T11:52:00;18.30;99.90
14061;DHT22;7105;43.616;1.434;2022-11-15T11:57:06;18.20;99.90
14061;DHT22;7105;43.616;1.434;2022-11-15T11:59:47;18.20;99.90
14061;DHT22;7105;43.616;1.434;2022-11-15T12:02:27;18.40;99.90
14061;DHT22;7105;43.616;1.434;2022-11-15T12:05:20;18.40;99.90
14061;DHT22;7105;43.616;1.434;2022-11-15T12:07:49;18.30;99.90
14061;DHT22;7105;43.616;1.434;2022-11-15T12:10:29;18.30;99.90
14061;DHT22;7105;43.616;1.434;2022-11-15T12:12:58;18.50;99.90
14061;DHT22;7105;43.616;1.434;2022-11-15T12:15:55;18.50;99.90
14061;DHT22;7105;43.616;1.434;2022-11-15T12:18:18;18.40;99.90
14061;DHT22;7105;43.616;1.434;2022-11-15T12:20:58;18.40;99.90
14061;DHT22;7105;43.616;1.434;2022-11-15T12:23:29;18.40;99.90
14061;DHT22;7105;43.616;1.434;2022-11-15T12:26:10;18.60;99.90
14061;DHT22;7105;43.616;1.434;2022-11-15T12:28:52;18.50;99.90
14061;DHT22;7105;43.616;1.434;2022-11-15T12:31:21;18.50;99.90
14061;DHT22;7105;43.616;1.434;2022-11-15T12:33:48;18.50;99.90
14061;DHT22;7105;43.616;1.434;2022-11-15T12:39:00;18.80;99.90
14061;DHT22;7105;43.616;1.434;2022-11-15T12:41:35;18.50;99.90
14061;DHT22;7105;43.616;1.434;2022-11-15T12:44:02;18.50;99.90
14061;DHT22;7105;43.616;1.434;2022-11-15T12:48:56;18.50;99.90
14061;DHT22;7105;43.616;1.434;2022-11-15T12:59:51;18.30;99.90
14061;DHT22;7105;43.616;1.434;2022-11-15T13:02:25;18.30;99.90
14061;DHT22;7105;43.616;1.434;2022-11-15T13:17:43;18.60;99.90
14061;DHT22;7105;43.616;1.434;2022-11-15T13:28:31;18.20;99.90
14061;DHT22;7105;43.616;1.434;2022-11-15T13:33:45;18.30;99.90
14061;DHT22;7105;43.616;1.434;2022-11-15T13:36:23;18.20;99.90
14061;DHT22;7105;43.616;1.434;2022-11-15T13:39:11;18.10;99.90
14061;DHT22;7105;43.616;1.434;2022-11-15T13:41:49;18.20;99.90
14061;DHT22;7105;43.616;1.434;2022-11-15T13:44:24;18.30;99.90
14061;DHT22;7105;43.616;1.434;2022-11-15T13:47:14;18.30;99.90
14061;DHT22;7105;43.616;1.434;2022-11-15T13:49:40;18.10;99.90
14061;DHT22;7105;43.616;1.434;2022-11-15T13:52:09;18.10;99.90
14061;DHT22;7105;43.616;1.434;2022-11-15T13:54:47;18.10;99.90
14061;DHT22;7105;43.616;1.434;2022-11-15T13:57:42;18.00;99.90
14061;DHT22;7105;43.616;1.434;2022-11-15T14:02:51;18.00;99.90
14061;DHT22;7105;43.616;1.434;2022-11-15T14:05:20;18.00;99.90
14061;DHT22;7105;43.616;1.434;2022-11-15T14:07:57;18.00;99.90
14061;DHT22;7105;43.616;1.434;2022-11-15T14:10:27;18.00;99.90
14061;DHT22;7105;43.616;1.434;2022-11-15T14:12:53;17.90;99.90
14061;DHT22;7105;43.616;1.434;2022-11-15T14:17:53;17.90;99.90
14061;DHT22;7105;43.616;1.434;2022-11-15T14:22:54;17.90;99.90
14061;DHT22;7105;43.616;1.434;2022-11-15T14:25:28;17.90;99.90
14061;DHT22;7105;43.616;1.434;2022-11-15T14:28:28;18.00;99.90
14061;DHT22;7105;43.616;1.434;2022-11-15T14:30:57;18.10;99.90
14061;DHT22;7105;43.616;1.434;2022-11-15T14:33:33;18.20;99.90
14061;DHT22;7105;43.616;1.434;2022-11-15T14:38:39;18.00;99.90
14061;DHT22;7105;43.616;1.434;2022-11-15T14:41:05;17.90;99.90
14061;DHT22;7105;43.616;1.434;2022-11-15T14:43:33;17.90;99.90
14061;DHT22;7105;43.616;1.434;2022-11-15T14:45:58;17.90;99.90
14061;DHT22;7105;43.616;1.434;2022-11-15T14:48:24;17.80;99.90
14061;DHT22;7105;43.616;1.434;2022-11-15T14:50:50;17.80;99.90
14061;DHT22;7105;43.616;1.434;2022-11-15T14:53:16;17.80;99.90
14061;DHT22;7105;43.616;1.434;2022-11-15T14:55:43;17.80;99.90
14061;DHT22;7105;43.616;1.434;2022-11-15T14:58:09;17.70;99.90
14061;DHT22;7105;43.616;1.434;2022-11-15T15:00:36;17.60;99.90
14061;DHT22;7105;43.616;1.434;2022-11-15T15:03:03;17.50;99.90
14061;DHT22;7105;43.616;1.434;2022-11-15T15:05:55;17.50;99.90
14061;DHT22;7105;43.616;1.434;2022-11-15T15:08:21;17.50;99.90
14061;DHT22;7105;43.616;1.434;2022-11-15T15:10:47;17.50;99.90
14061;DHT22;7105;43.616;1.434;2022-11-15T15:13:20;17.60;99.90
14061;DHT22;7105;43.616;1.434;2022-11-15T15:15:47;17.60;99.90
14061;DHT22;7105;43.616;1.434;2022-11-15T15:18:13;17.50;99.90
14061;DHT22;7105;43.616;1.434;2022-11-15T15:20:40;17.50;99.90
14061;DHT22;7105;43.616;1.434;2022-11-15T15:23:17;17.40;99.90
14061;DHT22;7105;43.616;1.434;2022-11-15T15:25:43;17.30;99.90
14061;DHT22;7105;43.616;1.434;2022-11-15T15:28:11;17.40;99.90
14061;DHT22;7105;43.616;1.434;2022-11-15T15:30:36;17.30;99.90
14061;DHT22;7105;43.616;1.434;2022-11-15T15:33:02;17.30;99.90
14061;DHT22;7105;43.616;1.434;2022-11-15T15:35:30;17.30;99.90
14061;DHT22;7105;43.616;1.434;2022-11-15T15:37:57;17.30;99.90
14061;DHT22;7105;43.616;1.434;2022-11-15T15:40:24;17.30;99.90
14061;DHT22;7105;43.616;1.434;2022-11-15T15:42:50;17.40;99.90
14061;DHT22;7105;43.616;1.434;2022-11-15T15:45:17;17.30;99.90
14061;DHT22;7105;43.616;1.434;2022-11-15T15:47:44;17.30;99.90
14061;DHT22;7105;43.616;1.434;2022-11-15T15:50:26;17.30;99.90
14061;DHT22;7105;43.616;1.434;2022-11-15T15:52:56;17.30;99.90
14061;DHT22;7105;43.616;1.434;2022-11-15T15:55:23;17.30;99.90
14061;DHT22;7105;43.616;1.434;2022-11-15T15:57:49;17.30;99.90
14061;DHT22;7105;43.616;1.434;2022-11-15T16:00:16;17.20;99.90
14061;DHT22;7105;43.616;1.434;2022-11-15T16:02:42;17.20;99.90
14061;DHT22;7105;43.616;1.434;2022-11-15T16:05:09;17.20;99.90
14061;DHT22;7105;43.616;1.434;2022-11-15T16:07:35;17.20;99.90
14061;DHT22;7105;43.616;1.434;2022-11-15T16:10:02;17.20;99.90
14061;DHT22;7105;43.616;1.434;2022-11-15T16:12:29;17.10;99.90
14061;DHT22;7105;43.616;1.434;2022-11-15T16:14:55;17.10;99.90
14061;DHT22;7105;43.616;1.434;2022-11-15T16:17:23;17.20;99.90
14061;DHT22;7105;43.616;1.434;2022-11-15T16:19:50;17.10;99.90
14061;DHT22;7105;43.616;1.434;2022-11-15T16:22:16;17.10;99.90
14061;DHT22;7105;43.616;1.434;2022-11-15T16:24:41;17.10;99.90
14061;DHT22;7105;43.616;1.434;2022-11-15T16:27:14;17.00;99.90
14061;DHT22;7105;43.616;1.434;2022-11-15T16:29:40;17.00;99.90
14061;DHT22;7105;43.616;1.434;2022-11-15T16:32:06;17.00;99.90
14061;DHT22;7105;43.616;1.434;2022-11-15T16:34:32;17.00;99.90
14061;DHT22;7105;43.616;1.434;2022-11-15T16:36:57;17.00;99.90
14061;DHT22;7105;43.616;1.434;2022-11-15T16:39:23;16.80;99.90
14061;DHT22;7105;43.616;1.434;2022-11-15T16:41:48;16.80;99.90
14061;DHT22;7105;43.616;1.434;2022-11-15T16:44:14;16.70;99.90
14061;DHT22;7105;43.616;1.434;2022-11-15T16:46:41;16.70;99.90
14061;DHT22;7105;43.616;1.434;2022-11-15T16:49:14;16.70;99.90
14061;DHT22;7105;43.616;1.434;2022-11-15T16:51:41;16.60;99.90
14061;DHT22;7105;43.616;1.434;2022-11-15T16:54:07;16.60;99.90
14061;DHT22;7105;43.616;1.434;2022-11-15T16:56:33;16.60;99.90
14061;DHT22;7105;43.616;1.434;2022-11-15T16:59:00;16.60;99.90
14061;DHT22;7105;43.616;1.434;2022-11-15T17:01:28;16.60;99.90
14061;DHT22;7105;43.616;1.434;2022-11-15T17:03:54;16.70;99.90
14061;DHT22;7105;43.616;1.434;2022-11-15T17:06:21;16.70;99.90
14061;DHT22;7105;43.616;1.434;2022-11-15T17:08:47;16.70;99.90
14061;DHT22;7105;43.616;1.434;2022-11-15T17:11:21;16.70;99.90
14061;DHT22;7105;43.616;1.434;2022-11-15T17:13:47;16.70;99.90
14061;DHT22;7105;43.616;1.434;2022-11-15T17:16:15;16.70;99.90
14061;DHT22;7105;43.616;1.434;2022-11-15T17:18:43;16.70;99.90
14061;DHT22;7105;43.616;1.434;2022-11-15T17:21:20;16.60;99.90
14061;DHT22;7105;43.616;1.434;2022-11-15T17:23:47;16.60;99.90
14061;DHT22;7105;43.616;1.434;2022-11-15T17:26:14;16.60;99.90
14061;DHT22;7105;43.616;1.434;2022-11-15T17:28:40;16.60;99.90
14061;DHT22;7105;43.616;1.434;2022-11-15T17:31:10;16.60;99.90
14061;DHT22;7105;43.616;1.434;2022-11-15T17:33:37;16.50;99.90
14061;DHT22;7105;43.616;1.434;2022-11-15T17:36:06;16.40;99.90
14061;DHT22;7105;43.616;1.434;2022-11-15T17:38:32;16.40;99.90
14061;DHT22;7105;43.616;1.434;2022-11-15T17:41:04;16.40;99.90
14061;DHT22;7105;43.616;1.434;2022-11-15T17:43:32;16.20;99.90
14061;DHT22;7105;43.616;1.434;2022-11-15T17:45:59;16.20;99.90
14061;DHT22;7105;43.616;1.434;2022-11-15T17:48:29;16.20;99.90
14061;DHT22;7105;43.616;1.434;2022-11-15T17:51:02;16.20;99.90